sensor_id;sensor_type;location;lat;lon;timestamp;pressure;altitude;pressure_sealevel;temperature;humidity
48792;BME280;34587;48.816;9.420;2023-11-21T00:01:51;98240.63;;;7.26;100.00
48792;BME280;34587;48.816;9.420;2023-11-21T00:04:17;98241.66;;;7.13;100.00
48792;BME280;34587;48.816;9.420;2023-11-21T00:06:42;98232.94;;;7.23;100.00
48792;BME280;34587;48.816;9.420;2023-11-21T00:09:07;98236.44;;;7.17;100.00
48792;BME280;34587;48.816;9.420;2023-11-21T00:11:33;98245.00;;;7.19;100.00
48792;BME280;34587;48.816;9.420;2023-11-21T00:13:59;98236.38;;;7.22;100.00
48792;BME280;34587;48.816;9.420;2023-11-21T00:16:24;98233.72;;;7.28;100.00
48792;BME280;34587;48.816;9.420;2023-11-21T00:18:50;98234.50;;;7.33;100.00
48792;BME280;34587;48.816;9.420;2023-11-21T00:21:16;98228.44;;;7.37;100.00
48792;BME280;34587;48.816;9.420;2023-11-21T00:23:42;98227.41;;;7.49;100.00
48792;BME280;34587;48.816;9.420;2023-11-21T00:26:07;98229.78;;;7.63;100.00
48792;BME280;34587;48.816;9.420;2023-11-21T00:28:33;98216.00;;;7.64;100.00
48792;BME280;34587;48.816;9.420;2023-11-21T00:30:58;98222.00;;;7.66;100.00
48792;BME280;34587;48.816;9.420;2023-11-21T00:33:23;98217.66;;;7.68;100.00
48792;BME280;34587;48.816;9.420;2023-11-21T00:35:50;98218.63;;;7.62;100.00
48792;BME280;34587;48.816;9.420;2023-11-21T00:38:15;98222.81;;;7.68;100.00
48792;BME280;34587;48.816;9.420;2023-11-21T00:40:41;98216.72;;;7.75;100.00
48792;BME280;34587;48.816;9.420;2023-11-21T00:43:06;98220.75;;;7.90;100.00
48792;BME280;34587;48.816;9.420;2023-11-21T00:45:31;98212.19;;;7.89;100.00
48792;BME280;34587;48.816;9.420;2023-11-21T00:47:56;98215.81;;;7.76;100.00
48792;BME280;34587;48.816;9.420;2023-11-21T00:50:23;98218.44;;;7.73;100.00
48792;BME280;34587;48.816;9.420;2023-11-21T00:52:49;98215.72;;;7.82;100.00
48792;BME280;34587;48.816;9.420;2023-11-21T00:55:16;98219.19;;;7.81;100.00
48792;BME280;34587;48.816;9.420;2023-11-21T00:57:42;98221.88;;;7.75;100.00
48792;BME280;34587;48.816;9.420;2023-11-21T05:17:37;98249.16;;;7.31;100.00
48792;BME280;34587;48.816;9.420;2023-11-21T05:20:04;98251.72;;;7.30;100.00
48792;BME280;34587;48.816;9.420;2023-11-21T05:22:33;98244.06;;;7.27;100.00
48792;BME280;34587;48.816;9.420;2023-11-21T05:24:59;98256.97;;;7.24;100.00
48792;BME280;34587;48.816;9.420;2023-11-21T05:27:24;98259.56;;;7.22;100.00
48792;BME280;34587;48.816;9.420;2023-11-21T05:29:50;98253.56;;;7.21;100.00
48792;BME280;34587;48.816;9.420;2023-11-21T05:32:15;98261.38;;;7.14;100.00
48792;BME280;34587;48.816;9.420;2023-11-21T05:34:42;98262.28;;;7.11;100.00
48792;BME280;34587;48.816;9.420;2023-11-21T05:37:08;98265.72;;;7.10;100.00
48792;BME280;34587;48.816;9.420;2023-11-21T05:39:33;98263.06;;;7.15;100.00
48792;BME280;34587;48.816;9.420;2023-11-21T05:41:58;98263.13;;;7.10;100.00
48792;BME280;34587;48.816;9.420;2023-11-21T05:44:25;98261.34;;;7.17;100.00
48792;BME280;34587;48.816;9.420;2023-11-21T05:46:50;98270.81;;;7.15;100.00
48792;BME280;34587;48.816;9.420;2023-11-21T05:49:15;98270.72;;;7.22;100.00
48792;BME280;34587;48.816;9.420;2023-11-21T05:51:41;98275.88;;;7.22;100.00
48792;BME280;34587;48.816;9.420;2023-11-21T05:54:06;98275.91;;;7.21;100.00
48792;BME280;34587;48.816;9.420;2023-11-21T05:56:33;98274.25;;;7.17;100.00
48792;BME280;34587;48.816;9.420;2023-11-21T05:58:58;98278.53;;;7.15;100.00
48792;BME280;34587;48.816;9.420;2023-11-21T06:01:25;98276.81;;;7.17;100.00
48792;BME280;34587;48.816;9.420;2023-11-21T06:03:53;98281.97;;;7.17;100.00
48792;BME280;34587;48.816;9.420;2023-11-21T06:06:19;98286.28;;;7.13;100.00
48792;BME280;34587;48.816;9.420;2023-11-21T06:08:44;98291.38;;;7.21;100.00
48792;BME280;34587;48.816;9.420;2023-11-21T06:11:10;98292.31;;;7.12;100.00
48792;BME280;34587;48.816;9.420;2023-11-21T06:13:36;98299.09;;;7.21;100.00
48792;BME280;34587;48.816;9.420;2023-11-21T06:16:01;98293.13;;;7.17;100.00
48792;BME280;34587;48.816;9.420;2023-11-21T06:18:27;98304.25;;;7.21;100.00
48792;BME280;34587;48.816;9.420;2023-11-21T06:20:52;98302.50;;;7.23;100.00
48792;BME280;34587;48.816;9.420;2023-11-21T06:23:18;98296.47;;;7.26;100.00
48792;BME280;34587;48.816;9.420;2023-11-21T06:25:43;98296.44;;;7.27;100.00
48792;BME280;34587;48.816;9.420;2023-11-21T06:28:09;98308.53;;;7.19;100.00
48792;BME280;34587;48.816;9.420;2023-11-21T06:30:35;98307.66;;;7.23;100.00
48792;BME280;34587;48.816;9.420;2023-11-21T06:33:00;98317.94;;;7.23;100.00
48792;BME280;34587;48.816;9.420;2023-11-21T06:35:26;98316.16;;;7.28;100.00
48792;BME280;34587;48.816;9.420;2023-11-21T06:37:54;98324.75;;;7.30;100.00
48792;BME280;34587;48.816;9.420;2023-11-21T06:40:20;98316.25;;;7.22;100.00
48792;BME280;34587;48.816;9.420;2023-11-21T06:42:45;98319.63;;;7.27;100.00
48792;BME280;34587;48.816;9.420;2023-11-21T06:45:12;98322.16;;;7.29;100.00
48792;BME280;34587;48.816;9.420;2023-11-21T06:47:38;98333.50;;;7.17;100.00
48792;BME280;34587;48.816;9.420;2023-11-21T06:50:03;98324.84;;;7.19;100.00
48792;BME280;34587;48.816;9.420;2023-11-21T06:52:29;98329.22;;;7.16;100.00
48792;BME280;34587;48.816;9.420;2023-11-21T06:54:54;98335.16;;;7.21;100.00
48792;BME280;34587;48.816;9.420;2023-11-21T06:57:20;98338.59;;;7.20;100.00
48792;BME280;34587;48.816;9.420;2023-11-21T06:59:45;98331.59;;;7.31;100.00
48792;BME280;34587;48.816;9.420;2023-11-21T07:02:10;98340.34;;;7.18;100.00
48792;BME280;34587;48.816;9.420;2023-11-21T07:04:36;98342.94;;;7.16;100.00
48792;BME280;34587;48.816;9.420;2023-11-21T07:07:06;98347.13;;;7.25;100.00
48792;BME280;34587;48.816;9.420;2023-11-21T07:09:32;98353.94;;;7.29;100.00
48792;BME280;34587;48.816;9.420;2023-11-21T07:11:57;98360.84;;;7.27;100.00
48792;BME280;34587;48.816;9.420;2023-11-21T07:14:22;98363.38;;;7.32;100.00
48792;BME280;34587;48.816;9.420;2023-11-21T07:16:48;98353.84;;;7.38;100.00
48792;BME280;34587;48.816;9.420;2023-11-21T07:19:13;98356.41;;;7.38;100.00
48792;BME280;34587;48.816;9.420;2023-11-21T07:21:40;98360.84;;;7.27;100.00
48792;BME280;34587;48.816;9.420;2023-11-21T07:24:06;98359.09;;;7.29;100.00
48792;BME280;34587;48.816;9.420;2023-11-21T07:26:33;98362.47;;;7.34;100.00
48792;BME280;34587;48.816;9.420;2023-11-21T07:29:00;98366.75;;;7.37;100.00
48792;BME280;34587;48.816;9.420;2023-11-21T07:31:26;98358.00;;;7.48;100.00
48792;BME280;34587;48.816;9.420;2023-11-21T07:33:51;98362.19;;;7.57;100.00
48792;BME280;34587;48.816;9.420;2023-11-21T07:36:17;98364.72;;;7.62;100.00
48792;BME280;34587;48.816;9.420;2023-11-21T07:38:46;98363.72;;;7.72;100.00
48792;BME280;34587;48.816;9.420;2023-11-21T07:41:12;98373.81;;;7.87;100.00
48792;BME280;34587;48.816;9.420;2023-11-21T07:43:40;98376.13;;;8.07;100.00
48792;BME280;34587;48.816;9.420;2023-11-21T07:46:05;98373.22;;;8.30;100.00
48792;BME280;34587;48.816;9.420;2023-11-21T07:48:31;98379.78;;;8.53;100.00
48792;BME280;34587;48.816;9.420;2023-11-21T07:50:58;98381.22;;;8.69;100.00
48792;BME280;34587;48.816;9.420;2023-11-21T07:53:26;98385.44;;;8.74;100.00
48792;BME280;34587;48.816;9.420;2023-11-21T07:55:54;98388.84;;;8.77;100.00
48792;BME280;34587;48.816;9.420;2023-11-21T07:58:19;98388.03;;;8.73;100.00
48792;BME280;34587;48.816;9.420;2023-11-21T08:00:44;98386.22;;;8.78;100.00
48792;BME280;34587;48.816;9.420;2023-11-21T08:03:10;98389.81;;;8.71;100.00
48792;BME280;34587;48.816;9.420;2023-11-21T08:05:36;98388.03;;;8.73;100.00
48792;BME280;34587;48.816;9.420;2023-11-21T08:08:01;98386.75;;;8.47;100.00
48792;BME280;34587;48.816;9.420;2023-11-21T08:10:27;98391.00;;;8.50;100.00
48792;BME280;34587;48.816;9.420;2023-11-21T08:12:52;98395.31;;;8.49;100.00
48792;BME280;34587;48.816;9.420;2023-11-21T08:15:18;98396.97;;;8.54;100.00
48792;BME280;34587;48.816;9.420;2023-11-21T08:17:44;98400.31;;;8.59;100.00
48792;BME280;34587;48.816;9.420;2023-11-21T08:20:10;98399.44;;;8.60;100.00
48792;BME280;34587;48.816;9.420;2023-11-21T08:22:36;98398.50;;;8.65;100.00
48792;BME280;34587;48.816;9.420;2023-11-21T08:25:01;98400.28;;;8.62;100.00
48792;BME280;34587;48.816;9.420;2023-11-21T08:27:29;98396.16;;;8.50;100.00
48792;BME280;34587;48.816;9.420;2023-11-21T08:29:54;98402.00;;;8.63;100.00
48792;BME280;34587;48.816;9.420;2023-11-21T08:32:19;98395.75;;;8.74;100.00
48792;BME280;34587;48.816;9.420;2023-11-21T08:34:45;98400.72;;;8.87;100.00
48792;BME280;34587;48.816;9.420;2023-11-21T08:37:10;98401.88;;;8.69;100.00
48792;BME280;34587;48.816;9.420;2023-11-21T08:39:37;98400.16;;;8.71;100.00
48792;BME280;34587;48.816;9.420;2023-11-21T08:42:03;98402.88;;;8.60;100.00
48792;BME280;34587;48.816;9.420;2023-11-21T08:44:28;98400.97;;;8.73;100.00
48792;BME280;34587;48.816;9.420;2023-11-21T08:46:55;98399.81;;;8.89;100.00
48792;BME280;34587;48.816;9.420;2023-11-21T08:49:20;98403.19;;;8.93;100.00
48792;BME280;34587;48.816;9.420;2023-11-21T08:51:46;98405.69;;;8.97;100.00
48792;BME280;34587;48.816;9.420;2023-11-21T08:54:11;98407.19;;;9.11;100.00
48792;BME280;34587;48.816;9.420;2023-11-21T08:56:37;98407.25;;;9.08;100.00
48792;BME280;34587;48.816;9.420;2023-11-21T08:59:02;98411.78;;;8.93;100.00
48792;BME280;34587;48.816;9.420;2023-11-21T09:01:29;98412.63;;;8.95;100.00
48792;BME280;34587;48.816;9.420;2023-11-21T09:03:57;98418.59;;;9.00;100.00
48792;BME280;34587;48.816;9.420;2023-11-21T09:06:22;98425.59;;;8.92;100.00
48792;BME280;34587;48.816;9.420;2023-11-21T09:08:48;98428.09;;;8.97;100.00
48792;BME280;34587;48.816;9.420;2023-11-21T09:11:13;98423.63;;;9.07;100.00
48792;BME280;34587;48.816;9.420;2023-11-21T09:13:38;98425.06;;;9.23;100.00
48792;BME280;34587;48.816;9.420;2023-11-21T09:16:04;98426.63;;;9.33;100.00
48792;BME280;34587;48.816;9.420;2023-11-21T09:18:30;98428.31;;;9.34;100.00
48792;BME280;34587;48.816;9.420;2023-11-21T09:20:56;98431.88;;;9.27;100.00
48792;BME280;34587;48.816;9.420;2023-11-21T09:23:21;98430.34;;;9.17;100.00
48792;BME280;34587;48.816;9.420;2023-11-21T09:25:46;98424.78;;;9.38;100.00
48792;BME280;34587;48.816;9.420;2023-11-21T09:28:15;98434.41;;;9.30;100.00
48792;BME280;34587;48.816;9.420;2023-11-21T09:30:40;98429.47;;;9.63;100.00
48792;BME280;34587;48.816;9.420;2023-11-21T09:33:06;98425.94;;;9.67;100.00
48792;BME280;34587;48.816;9.420;2023-11-21T09:35:32;98437.66;;;9.85;100.00
48792;BME280;34587;48.816;9.420;2023-11-21T09:37:57;98425.97;;;10.05;100.00
48792;BME280;34587;48.816;9.420;2023-11-21T09:40:22;98432.25;;;9.95;100.00
48792;BME280;34587;48.816;9.420;2023-11-21T09:42:55;98428.78;;;9.96;100.00
48792;BME280;34587;48.816;9.420;2023-11-21T09:45:26;98434.84;;;9.95;100.00
48792;BME280;34587;48.816;9.420;2023-11-21T09:47:56;98434.16;;;9.86;100.00
48792;BME280;34587;48.816;9.420;2023-11-21T09:50:22;98444.75;;;9.75;100.00
48792;BME280;34587;48.816;9.420;2023-11-21T09:53:03;98436.22;;;9.70;100.00
48792;BME280;34587;48.816;9.420;2023-11-21T09:55:34;98449.84;;;10.20;100.00
48792;BME280;34587;48.816;9.420;2023-11-21T09:58:04;98442.50;;;10.79;100.00
48792;BME280;34587;48.816;9.420;2023-11-21T10:00:33;98444.88;;;11.21;100.00
48792;BME280;34587;48.816;9.420;2023-11-21T10:02:58;98442.47;;;11.47;100.00
48792;BME280;34587;48.816;9.420;2023-11-21T10:05:24;98440.41;;;11.91;100.00
48792;BME280;34587;48.816;9.420;2023-11-21T10:07:53;98438.22;;;12.35;100.00
48792;BME280;34587;48.816;9.420;2023-11-21T10:10:21;98446.09;;;12.60;100.00
48792;BME280;34587;48.816;9.420;2023-11-21T10:12:50;98440.47;;;12.74;100.00
48792;BME280;34587;48.816;9.420;2023-11-21T10:15:21;98439.75;;;12.95;100.00
48792;BME280;34587;48.816;9.420;2023-11-21T10:17:48;98441.44;;;12.43;100.00
48792;BME280;34587;48.816;9.420;2023-11-21T10:20:14;98449.03;;;11.61;100.00
48792;BME280;34587;48.816;9.420;2023-11-21T10:22:41;98448.31;;;11.54;100.00
48792;BME280;34587;48.816;9.420;2023-11-21T10:25:10;98456.63;;;11.34;100.00
48792;BME280;34587;48.816;9.420;2023-11-21T10:27:37;98458.97;;;11.11;100.00
48792;BME280;34587;48.816;9.420;2023-11-21T10:30:07;98458.13;;;10.37;100.00
48792;BME280;34587;48.816;9.420;2023-11-21T10:32:39;98456.00;;;10.16;100.00
48792;BME280;34587;48.816;9.420;2023-11-21T10:35:06;98458.50;;;10.19;100.00
48792;BME280;34587;48.816;9.420;2023-11-21T10:37:35;98455.75;;;10.28;100.00
48792;BME280;34587;48.816;9.420;2023-11-21T10:40:01;98467.72;;;9.92;100.00
48792;BME280;34587;48.816;9.420;2023-11-21T10:42:27;98464.69;;;9.70;100.00
48792;BME280;34587;48.816;9.420;2023-11-21T10:44:53;98462.91;;;9.73;100.00
48792;BME280;34587;48.816;9.420;2023-11-21T10:47:19;98460.34;;;9.72;100.00
48792;BME280;34587;48.816;9.420;2023-11-21T10:49:44;98463.72;;;9.75;100.00
48792;BME280;34587;48.816;9.420;2023-11-21T10:52:13;98465.75;;;9.60;100.00
48792;BME280;34587;48.816;9.420;2023-11-21T10:54:46;98461.28;;;9.66;100.00
48792;BME280;34587;48.816;9.420;2023-11-21T10:57:13;98476.25;;;9.50;100.00
48792;BME280;34587;48.816;9.420;2023-11-21T10:59:43;98472.69;;;9.58;100.00
48792;BME280;34587;48.816;9.420;2023-11-21T11:02:21;98477.19;;;9.48;100.00
48792;BME280;34587;48.816;9.420;2023-11-21T11:04:48;98469.09;;;9.65;100.00
48792;BME280;34587;48.816;9.420;2023-11-21T11:07:14;98461.88;;;9.82;100.00
48792;BME280;34587;48.816;9.420;2023-11-21T11:09:41;98466.72;;;9.97;100.00
48792;BME280;34587;48.816;9.420;2023-11-21T11:12:06;98463.72;;;10.17;100.00
48792;BME280;34587;48.816;9.420;2023-11-21T11:14:35;98461.88;;;10.24;100.00
48792;BME280;34587;48.816;9.420;2023-11-21T11:17:01;98460.16;;;10.62;100.00
48792;BME280;34587;48.816;9.420;2023-11-21T11:19:28;98458.03;;;10.79;100.00
48792;BME280;34587;48.816;9.420;2023-11-21T11:22:19;98456.25;;;11.15;100.00
48792;BME280;34587;48.816;9.420;2023-11-21T11:27:54;98459.94;;;10.71;100.00
48792;BME280;34587;48.816;9.420;2023-11-21T11:33:42;98451.38;;;10.69;100.00
48792;BME280;34587;48.816;9.420;2023-11-21T11:36:17;98455.91;;;10.19;100.00
48792;BME280;34587;48.816;9.420;2023-11-21T11:38:47;98469.22;;;9.59;100.00
48792;BME280;34587;48.816;9.420;2023-11-21T11:41:24;98476.19;;;9.06;100.00
48792;BME280;34587;48.816;9.420;2023-11-21T11:43:49;98479.66;;;9.05;100.00
48792;BME280;34587;48.816;9.420;2023-11-21T11:46:15;98482.19;;;9.08;100.00
48792;BME280;34587;48.816;9.420;2023-11-21T11:48:40;98477.16;;;8.98;100.00
48792;BME280;34587;48.816;9.420;2023-11-21T11:51:15;98483.72;;;9.18;100.00
48792;BME280;34587;48.816;9.420;2023-11-21T11:53:43;98492.53;;;9.08;100.00
48792;BME280;34587;48.816;9.420;2023-11-21T11:56:30;98485.75;;;9.00;100.00
48792;BME280;34587;48.816;9.420;2023-11-21T11:59:00;98489.13;;;9.06;100.00
48792;BME280;34587;48.816;9.420;2023-11-21T12:01:28;98490.72;;;9.13;100.00
48792;BME280;34587;48.816;9.420;2023-11-21T12:06:40;98483.66;;;9.24;100.00
48792;BME280;34587;48.816;9.420;2023-11-21T12:09:06;98487.50;;;9.49;100.00
48792;BME280;34587;48.816;9.420;2023-11-21T12:11:32;98489.38;;;9.86;100.00
48792;BME280;34587;48.816;9.420;2023-11-21T12:13:58;98487.00;;;10.17;100.00
48792;BME280;34587;48.816;9.420;2023-11-21T12:16:25;98484.56;;;10.51;100.00
48792;BME280;34587;48.816;9.420;2023-11-21T12:18:52;98475.75;;;10.59;100.00
48792;BME280;34587;48.816;9.420;2023-11-21T12:21:19;98479.13;;;10.64;100.00
48792;BME280;34587;48.816;9.420;2023-11-21T12:23:45;98476.81;;;10.87;100.00
48792;BME280;34587;48.816;9.420;2023-11-21T12:26:12;98473.44;;;10.85;100.00
48792;BME280;34587;48.816;9.420;2023-11-21T12:28:38;98473.06;;;11.00;100.00
48792;BME280;34587;48.816;9.420;2023-11-21T12:31:03;98478.88;;;10.74;100.00
48792;BME280;34587;48.816;9.420;2023-11-21T12:33:30;98479.06;;;11.02;100.00
48792;BME280;34587;48.816;9.420;2023-11-21T12:35:55;98476.91;;;10.84;100.00
48792;BME280;34587;48.816;9.420;2023-11-21T12:38:22;98477.88;;;10.80;100.00
48792;BME280;34587;48.816;9.420;2023-11-21T12:40:50;98485.69;;;11.14;100.00
48792;BME280;34587;48.816;9.420;2023-11-21T12:43:16;98485.44;;;10.89;100.00
48792;BME280;34587;48.816;9.420;2023-11-21T12:45:43;98487.50;;;10.75;100.00
48792;BME280;34587;48.816;9.420;2023-11-21T12:48:09;98496.50;;;10.59;100.00
48792;BME280;34587;48.816;9.420;2023-11-21T12:50:37;98501.97;;;10.03;100.00
48792;BME280;34587;48.816;9.420;2023-11-21T12:53:06;98505.78;;;9.87;100.00
48792;BME280;34587;48.816;9.420;2023-11-21T12:55:34;98506.94;;;10.14;100.00
48792;BME280;34587;48.816;9.420;2023-11-21T12:58:03;98495.41;;;10.30;100.00
48792;BME280;34587;48.816;9.420;2023-11-21T13:00:39;98499.13;;;10.17;100.00
48792;BME280;34587;48.816;9.420;2023-11-21T13:03:05;98493.69;;;10.29;100.00
48792;BME280;34587;48.816;9.420;2023-11-21T13:05:34;98494.97;;;10.50;100.00
48792;BME280;34587;48.816;9.420;2023-11-21T13:08:02;98488.31;;;10.77;100.00
48792;BME280;34587;48.816;9.420;2023-11-21T13:10:30;98487.13;;;10.90;100.00
48792;BME280;34587;48.816;9.420;2023-11-21T13:12:59;98482.84;;;10.88;100.00
48792;BME280;34587;48.816;9.420;2023-11-21T13:15:28;98488.72;;;10.60;100.00
48792;BME280;34587;48.816;9.420;2023-11-21T13:17:57;98488.59;;;10.65;100.00
48792;BME280;34587;48.816;9.420;2023-11-21T13:20:23;98489.66;;;10.56;100.00
48792;BME280;34587;48.816;9.420;2023-11-21T13:22:56;98502.81;;;10.47;100.00
48792;BME280;34587;48.816;9.420;2023-11-21T13:25:29;98505.41;;;10.47;100.00
48792;BME280;34587;48.816;9.420;2023-11-21T13:27:58;98512.56;;;10.36;100.00
48792;BME280;34587;48.816;9.420;2023-11-21T13:30:27;98513.22;;;10.44;100.00
48792;BME280;34587;48.816;9.420;2023-11-21T13:32:59;98519.69;;;10.24;100.00
48792;BME280;34587;48.816;9.420;2023-11-21T13:35:30;98529.06;;;9.87;100.00
48792;BME280;34587;48.816;9.420;2023-11-21T13:38:04;98527.63;;;9.72;100.00
48792;BME280;34587;48.816;9.420;2023-11-21T13:40:30;98535.09;;;9.87;100.00
48792;BME280;34587;48.816;9.420;2023-11-21T13:42:56;98535.03;;;9.89;100.00
48792;BME280;34587;48.816;9.420;2023-11-21T13:45:25;98539.19;;;9.51;100.00
48792;BME280;34587;48.816;9.420;2023-11-21T13:47:53;98536.50;;;9.56;100.00
48792;BME280;34587;48.816;9.420;2023-11-21T13:50:24;98542.72;;;9.45;100.00
48792;BME280;34587;48.816;9.420;2023-11-21T13:52:55;98536.69;;;9.46;100.00
48792;BME280;34587;48.816;9.420;2023-11-21T13:55:20;98536.19;;;9.24;100.00
48792;BME280;34587;48.816;9.420;2023-11-21T13:57:49;98542.28;;;9.20;100.00
48792;BME280;34587;48.816;9.420;2023-11-21T14:00:18;98541.16;;;9.37;100.00
48792;BME280;34587;48.816;9.420;2023-11-21T14:03:02;98544.63;;;9.36;100.00
48792;BME280;34587;48.816;9.420;2023-11-21T14:05:29;98548.19;;;9.27;100.00
48792;BME280;34587;48.816;9.420;2023-11-21T14:07:56;98550.72;;;9.32;100.00
48792;BME280;34587;48.816;9.420;2023-11-21T14:10:28;98557.72;;;9.25;100.00
48792;BME280;34587;48.816;9.420;2023-11-21T14:13:02;98557.72;;;9.25;100.00
48792;BME280;34587;48.816;9.420;2023-11-21T14:15:28;98563.00;;;9.19;100.00
48792;BME280;34587;48.816;9.420;2023-11-21T14:17:54;98574.28;;;9.13;100.00
48792;BME280;34587;48.816;9.420;2023-11-21T14:20:19;98578.59;;;9.13;100.00
48792;BME280;34587;48.816;9.420;2023-11-21T14:22:46;98575.78;;;9.26;100.00
48792;BME280;34587;48.816;9.420;2023-11-21T14:25:12;98578.31;;;9.31;100.00
48792;BME280;34587;48.816;9.420;2023-11-21T14:27:37;98585.91;;;9.40;100.00
48792;BME280;34587;48.816;9.420;2023-11-21T14:30:03;98574.78;;;9.35;100.00
48792;BME280;34587;48.816;9.420;2023-11-21T14:32:28;98583.91;;;9.56;100.00
48792;BME280;34587;48.816;9.420;2023-11-21T14:34:53;98578.09;;;9.45;100.00
48792;BME280;34587;48.816;9.420;2023-11-21T14:37:19;98597.06;;;9.42;100.00
48792;BME280;34587;48.816;9.420;2023-11-21T14:39:45;98576.50;;;9.36;100.00
48792;BME280;34587;48.816;9.420;2023-11-21T14:42:13;98590.34;;;9.32;100.00
48792;BME280;34587;48.816;9.420;2023-11-21T14:44:40;98585.50;;;9.14;100.00
48792;BME280;34587;48.816;9.420;2023-11-21T14:47:06;98587.19;;;9.15;100.00
48792;BME280;34587;48.816;9.420;2023-11-21T14:49:43;98586.41;;;9.10;100.00
48792;BME280;34587;48.816;9.420;2023-11-21T14:52:21;98589.91;;;9.06;100.00
48792;BME280;34587;48.816;9.420;2023-11-21T14:55:00;98595.00;;;9.09;100.00
48792;BME280;34587;48.816;9.420;2023-11-21T14:57:44;98597.59;;;9.09;100.00
48792;BME280;34587;48.816;9.420;2023-11-21T15:00:17;98611.47;;;9.05;100.00
48792;BME280;34587;48.816;9.420;2023-11-21T15:03:02;98619.16;;;9.09;100.00
48792;BME280;34587;48.816;9.420;2023-11-21T15:05:28;98618.94;;;9.23;100.00
48792;BME280;34587;48.816;9.420;2023-11-21T15:07:54;98613.69;;;9.29;100.00
48792;BME280;34587;48.816;9.420;2023-11-21T15:10:22;98620.69;;;9.21;100.00
48792;BME280;34587;48.816;9.420;2023-11-21T15:13:03;98618.34;;;9.06;100.00
48792;BME280;34587;48.816;9.420;2023-11-21T15:15:28;98628.81;;;8.96;100.00
48792;BME280;34587;48.816;9.420;2023-11-21T15:17:55;98635.66;;;9.00;100.00
48792;BME280;34587;48.816;9.420;2023-11-21T15:20:20;98633.97;;;8.96;100.00
48792;BME280;34587;48.816;9.420;2023-11-21T15:22:47;98641.81;;;8.89;100.00
48792;BME280;34587;48.816;9.420;2023-11-21T15:25:13;98641.16;;;8.73;100.00
48792;BME280;34587;48.816;9.420;2023-11-21T15:27:38;98655.97;;;8.59;100.00
48792;BME280;34587;48.816;9.420;2023-11-21T15:30:05;98653.31;;;8.65;100.00
48792;BME280;34587;48.816;9.420;2023-11-21T15:32:30;98655.19;;;8.54;100.00
48792;BME280;34587;48.816;9.420;2023-11-21T15:34:56;98650.94;;;8.48;100.00
48792;BME280;34587;48.816;9.420;2023-11-21T15:37:21;98660.44;;;8.47;100.00
48792;BME280;34587;48.816;9.420;2023-11-21T15:39:46;98664.69;;;8.50;100.00
48792;BME280;34587;48.816;9.420;2023-11-21T15:42:12;98674.22;;;8.46;100.00
48792;BME280;34587;48.816;9.420;2023-11-21T15:44:37;98672.56;;;8.39;100.00
48792;BME280;34587;48.816;9.420;2023-11-21T15:47:04;98676.81;;;8.43;100.00
48792;BME280;34587;48.816;9.420;2023-11-21T15:49:31;98678.56;;;8.41;100.00
48792;BME280;34587;48.816;9.420;2023-11-21T15:51:59;98677.72;;;8.35;100.00
48792;BME280;34587;48.816;9.420;2023-11-21T15:54:26;98681.22;;;8.32;100.00
48792;BME280;34587;48.816;9.420;2023-11-21T15:56:53;98685.47;;;8.39;100.00
48792;BME280;34587;48.816;9.420;2023-11-21T15:59:20;98686.34;;;8.38;100.00
48792;BME280;34587;48.816;9.420;2023-11-21T16:01:49;98682.88;;;8.39;100.00
48792;BME280;34587;48.816;9.420;2023-11-21T16:04:14;98684.66;;;8.31;100.00
48792;BME280;34587;48.816;9.420;2023-11-21T16:06:42;98694.16;;;8.29;100.00
48792;BME280;34587;48.816;9.420;2023-11-21T16:09:07;98689.88;;;8.28;100.00
48792;BME280;34587;48.816;9.420;2023-11-21T16:11:45;98694.91;;;8.43;100.00
48792;BME280;34587;48.816;9.420;2023-11-21T16:14:10;98703.25;;;8.67;100.00
48792;BME280;34587;48.816;9.420;2023-11-21T16:16:37;98705.94;;;8.58;100.00
48792;BME280;34587;48.816;9.420;2023-11-21T16:19:02;98703.53;;;8.42;100.00
48792;BME280;34587;48.816;9.420;2023-11-21T16:21:27;98711.31;;;8.33;100.00
48792;BME280;34587;48.816;9.420;2023-11-21T16:23:52;98719.09;;;8.30;100.00
48792;BME280;34587;48.816;9.420;2023-11-21T16:26:19;98717.47;;;8.20;100.00
48792;BME280;34587;48.816;9.420;2023-11-21T16:28:44;98720.06;;;8.18;100.00
48792;BME280;34587;48.816;9.420;2023-11-21T16:31:09;98726.09;;;8.16;100.00
48792;BME280;34587;48.816;9.420;2023-11-21T16:33:36;98727.00;;;8.13;100.00
48792;BME280;34587;48.816;9.420;2023-11-21T16:36:01;98724.47;;;8.09;100.00
48792;BME280;34587;48.816;9.420;2023-11-21T16:38:26;98727.09;;;8.03;100.00
48792;BME280;34587;48.816;9.420;2023-11-21T16:40:51;98727.94;;;8.02;100.00
48792;BME280;34587;48.816;9.420;2023-11-21T16:43:17;98744.28;;;8.02;100.00
48792;BME280;34587;48.816;9.420;2023-11-21T16:45:42;98743.47;;;7.97;100.00
48792;BME280;34587;48.816;9.420;2023-11-21T16:48:14;98742.69;;;7.86;100.00
48792;BME280;34587;48.816;9.420;2023-11-21T16:50:43;98754.03;;;7.62;100.00
48792;BME280;34587;48.816;9.420;2023-11-21T16:53:08;98755.91;;;7.40;100.00
48792;BME280;34587;48.816;9.420;2023-11-21T16:55:34;98766.25;;;7.29;100.00
48792;BME280;34587;48.816;9.420;2023-11-21T16:57:59;98772.41;;;7.07;100.00
48792;BME280;34587;48.816;9.420;2023-11-21T17:00:25;98778.44;;;6.97;100.00
48792;BME280;34587;48.816;9.420;2023-11-21T17:02:51;98775.06;;;6.82;100.00
48792;BME280;34587;48.816;9.420;2023-11-21T17:05:17;98773.38;;;6.72;100.00
48792;BME280;34587;48.816;9.420;2023-11-21T17:07:44;98781.94;;;6.66;100.00
48792;BME280;34587;48.816;9.420;2023-11-21T17:10:10;98781.13;;;6.63;100.00
48792;BME280;34587;48.816;9.420;2023-11-21T17:12:37;98789.69;;;6.60;100.00
48792;BME280;34587;48.816;9.420;2023-11-21T17:15:02;98796.56;;;6.54;100.00
48792;BME280;34587;48.816;9.420;2023-11-21T17:17:28;98803.44;;;6.44;100.00
48792;BME280;34587;48.816;9.420;2023-11-21T17:19:53;98794.03;;;6.38;100.00
48792;BME280;34587;48.816;9.420;2023-11-21T17:22:19;98798.31;;;6.36;100.00
48792;BME280;34587;48.816;9.420;2023-11-21T17:24:45;98803.44;;;6.27;100.00